首页
METAR-TAF:

METAR-TAF

机场 :

雅温得-恩西马兰国际机场

雅温得, 喀麦隆

纬度: 03-50N, 经度: 011-31E, 海拔: 751米

当前天气观测

该预报发布于46分钟前的10:30 UTC
风速8节,风向西转西北
温度 25°C
湿度 69%
气压 1021 hPa
能見度: 7000
多云层高于1300英尺

METAR: FKYS 231030Z 29008KT 7000 BKN013 25/19 Q1021 BECMG BKN016

时间: 12:16 (11:16 UTC)

预报

该预报发布于6小时和16分钟前的05:00 UTC
预报有效从23日的 06点(UTC)到 24日的 06点(UTC)
风速4节,风向西
能見度: 8000
多云层高于600英尺
成为
从 23日的 08点(UTC)到 23日的 10点(UTC)
多云层高于1300英尺
成为
从 23日的 20点(UTC)到 23日的 22点(UTC)
多云层高于600英尺

TAF: FKYS 230500Z 2306/2406 26004KT 8000 BKN006 BECMG 2308/2310 BKN013 BECMG 2320/2322 BKN006

超过4000个机场的气象观测和天气预报(METAR&TAF报告)。

可查询的气象台以黄色和红色小点在地图上表示。

将鼠标移到小点上方,可查看气象台名称。

然后点击查看天气观测和预报。

如需切换地图:点击带黑十字的绿色按钮放大地图;点击带横线的绿色按钮缩小地图;或者点击绿色箭头查看邻近地区的地图。


METAR-TAF: